createdAt,value
2023-05-06T00:01:41.461Z,49.00
2023-05-06T00:04:34.190Z,49.07
2023-05-06T00:07:26.230Z,49.15
2023-05-06T00:10:00.504Z,49.21
2023-05-06T00:12:52.509Z,49.31
2023-05-06T00:15:44.540Z,49.39
2023-05-06T00:18:36.611Z,49.54
2023-05-06T00:21:28.652Z,49.70
2023-05-06T00:24:20.605Z,49.71
2023-05-06T00:27:12.556Z,49.92
2023-05-06T00:30:04.912Z,50.06
2023-05-06T00:32:57.081Z,50.16
2023-05-06T00:35:49.235Z,50.26
2023-05-06T00:38:41.198Z,50.33
2023-05-06T00:41:35.499Z,50.48
2023-05-06T00:44:27.579Z,50.67
2023-05-06T00:47:21.899Z,50.83
2023-05-06T00:50:14.272Z,50.87
2023-05-06T00:52:49.173Z,50.91
2023-05-06T00:55:42.339Z,51.13
2023-05-06T00:58:34.619Z,51.18
2023-05-06T01:01:12.510Z,51.29
2023-05-06T01:04:04.803Z,51.28
2023-05-06T01:07:05.828Z,51.36
2023-05-06T01:09:56.139Z,51.53
2023-05-06T01:12:38.506Z,51.53
2023-05-06T01:15:37.699Z,51.69
2023-05-06T01:18:17.064Z,51.77
2023-05-06T01:21:10.379Z,51.76
2023-05-06T01:24:02.543Z,51.83
2023-05-06T01:26:54.550Z,52.05
2023-05-06T01:29:48.203Z,52.09
2023-05-06T01:32:40.117Z,52.11
2023-05-06T01:35:40.685Z,52.26
2023-05-06T01:38:40.631Z,52.38
2023-05-06T01:41:35.023Z,52.53
2023-05-06T01:44:28.611Z,52.70
2023-05-06T01:47:12.394Z,52.81
2023-05-06T01:50:05.563Z,52.88
2023-05-06T01:53:03.563Z,52.81
2023-05-06T01:55:55.628Z,53.04
2023-05-06T01:58:47.611Z,53.13
2023-05-06T02:01:39.635Z,53.21
2023-05-06T02:04:31.719Z,53.29
2023-05-06T02:07:23.726Z,53.34
2023-05-06T02:10:15.725Z,53.45
2023-05-06T02:13:07.885Z,53.39
2023-05-06T02:15:42.865Z,53.71
2023-05-06T02:18:35.050Z,53.67
2023-05-06T02:21:27.791Z,53.66
2023-05-06T02:24:19.802Z,53.77
2023-05-06T02:27:11.744Z,53.87
2023-05-06T02:29:46.439Z,54.00
2023-05-06T02:32:38.404Z,53.98
2023-05-06T02:35:30.430Z,54.12
2023-05-06T02:38:05.303Z,54.10
2023-05-06T02:40:57.272Z,54.17
2023-05-06T02:43:49.799Z,54.21
2023-05-06T02:46:43.570Z,54.39
2023-05-06T02:49:35.739Z,54.37
2023-05-06T02:52:27.862Z,54.50
2023-05-06T02:55:21.255Z,54.44
2023-05-06T02:58:13.274Z,54.72
2023-05-06T03:01:05.378Z,54.78
2023-05-06T03:03:57.434Z,54.77
2023-05-06T03:06:49.419Z,54.74
2023-05-06T03:09:30.010Z,54.90
2023-05-06T03:12:21.987Z,54.98
2023-05-06T03:15:14.598Z,54.93
2023-05-06T03:18:06.610Z,54.93
2023-05-06T03:20:58.759Z,54.99
2023-05-06T03:23:36.388Z,54.90
2023-05-06T03:26:28.442Z,54.91
2023-05-06T03:29:20.521Z,54.85
2023-05-06T03:32:12.414Z,54.94
2023-05-06T03:35:04.789Z,55.05
2023-05-06T03:37:56.912Z,54.87
2023-05-06T03:40:49.024Z,54.83
2023-05-06T03:43:41.066Z,54.84
2023-05-06T03:46:33.267Z,54.85
2023-05-06T03:49:14.506Z,54.71
2023-05-06T03:51:56.957Z,54.69
2023-05-06T03:54:33.978Z,54.46
2023-05-06T03:57:25.969Z,54.47
2023-05-06T04:00:18.842Z,54.61
2023-05-06T04:02:53.542Z,54.55
2023-05-06T04:05:46.447Z,54.39
2023-05-06T04:08:38.529Z,54.43
2023-05-06T04:11:31.046Z,54.46
2023-05-06T04:14:23.030Z,54.49
2023-05-06T04:17:15.112Z,54.35
2023-05-06T04:20:11.335Z,54.47
2023-05-06T04:23:04.125Z,54.38
2023-05-06T04:25:48.788Z,54.49
2023-05-06T04:28:37.638Z,54.57
2023-05-06T04:31:29.751Z,54.60
2023-05-06T04:34:21.893Z,54.78
2023-05-06T04:37:02.779Z,54.60
2023-05-06T04:39:55.818Z,54.61
2023-05-06T04:42:47.787Z,54.66
2023-05-06T04:45:40.172Z,54.61
2023-05-06T04:48:32.201Z,54.57
2023-05-06T04:51:24.185Z,54.55
2023-05-06T04:54:05.130Z,54.38
2023-05-06T04:56:57.214Z,54.34
2023-05-06T04:59:39.486Z,54.34
2023-05-06T05:02:31.569Z,54.46
2023-05-06T05:05:23.560Z,54.39
2023-05-06T05:08:15.627Z,54.51
2023-05-06T05:11:08.535Z,54.18
2023-05-06T05:14:02.116Z,54.10
2023-05-06T05:16:54.774Z,54.26
2023-05-06T05:19:46.766Z,54.10
2023-05-06T05:22:21.752Z,54.15
2023-05-06T05:25:14.302Z,54.22
2023-05-06T05:28:06.873Z,54.06
2023-05-06T05:31:04.852Z,53.96
2023-05-06T05:33:57.126Z,53.88
2023-05-06T05:36:49.165Z,53.82
2023-05-06T05:39:41.148Z,53.81
2023-05-06T05:42:33.754Z,53.80
2023-05-06T05:45:25.795Z,53.59
2023-05-06T05:48:17.925Z,53.02
2023-05-06T05:51:09.981Z,52.26
2023-05-06T05:54:01.958Z,52.10
2023-05-06T05:56:36.657Z,52.26
2023-05-06T05:59:28.768Z,52.15
2023-05-06T06:02:06.100Z,52.13
2023-05-06T06:04:58.348Z,51.94
2023-05-06T06:07:37.730Z,51.81
2023-05-06T06:10:29.911Z,51.84
2023-05-06T06:13:07.131Z,51.65
2023-05-06T06:15:49.532Z,51.57
2023-05-06T06:18:41.540Z,51.11
2023-05-06T06:21:33.619Z,50.12
2023-05-06T06:24:25.814Z,49.37
2023-05-06T06:27:17.904Z,49.33
2023-05-06T06:30:11.666Z,49.28
2023-05-06T06:32:52.007Z,49.41
2023-05-06T06:35:44.032Z,49.80
2023-05-06T06:38:35.997Z,49.82
2023-05-06T06:41:29.244Z,49.65
2023-05-06T06:44:21.219Z,49.38
2023-05-06T06:46:58.229Z,49.46
2023-05-06T06:49:50.504Z,49.33
2023-05-06T06:52:42.474Z,48.96
2023-05-06T06:55:34.518Z,48.70
2023-05-06T06:58:26.501Z,47.91
2023-05-06T07:01:18.487Z,47.83
2023-05-06T07:04:10.534Z,47.77
2023-05-06T07:07:02.614Z,47.57
2023-05-06T07:09:54.821Z,47.07
2023-05-06T07:12:46.959Z,47.05
2023-05-06T07:15:39.755Z,47.16
2023-05-06T07:18:31.837Z,46.99
2023-05-06T07:21:23.939Z,47.37
2023-05-06T07:24:15.978Z,47.29
2023-05-06T07:27:08.044Z,47.23
2023-05-06T07:30:00.152Z,47.16
2023-05-06T07:32:52.345Z,47.28
2023-05-06T07:35:44.306Z,47.36
2023-05-06T07:38:26.595Z,47.44
2023-05-06T07:41:18.546Z,47.44
2023-05-06T07:44:10.835Z,47.41
2023-05-06T07:47:03.105Z,47.49
2023-05-06T07:49:55.202Z,47.76
2023-05-06T07:52:47.218Z,47.71
2023-05-06T07:55:39.147Z,47.58
2023-05-06T07:58:31.353Z,47.52
2023-05-06T08:01:23.475Z,47.76
2023-05-06T08:04:15.615Z,47.77
2023-05-06T08:07:08.416Z,47.81
2023-05-06T08:10:00.437Z,46.83
2023-05-06T08:12:52.475Z,47.63
2023-05-06T08:15:44.559Z,47.54
2023-05-06T08:18:36.883Z,47.76
2023-05-06T08:21:17.816Z,47.51
2023-05-06T08:24:10.507Z,47.82
2023-05-06T08:27:11.126Z,47.94
2023-05-06T08:30:03.105Z,48.26
2023-05-06T08:32:55.085Z,48.37
2023-05-06T08:35:47.758Z,48.30
2023-05-06T08:38:39.741Z,48.52
2023-05-06T08:41:21.236Z,48.52
2023-05-06T08:44:19.195Z,48.38
2023-05-06T08:47:11.377Z,48.65
2023-05-06T08:50:03.569Z,48.75
2023-05-06T08:52:55.613Z,48.86
2023-05-06T08:55:38.562Z,48.87
2023-05-06T08:58:15.684Z,48.64
2023-05-06T09:01:07.911Z,48.44
2023-05-06T09:04:00.820Z,48.33
2023-05-06T09:06:52.802Z,48.08
2023-05-06T09:09:44.898Z,48.03
2023-05-06T09:12:40.504Z,48.09
2023-05-06T09:15:42.247Z,48.22
2023-05-06T09:18:17.804Z,48.43
2023-05-06T09:21:09.844Z,48.23
2023-05-06T09:23:52.233Z,48.22
2023-05-06T09:26:46.116Z,48.53
2023-05-06T09:29:38.109Z,48.63
2023-05-06T09:32:30.358Z,48.71
2023-05-06T09:35:22.445Z,48.97
2023-05-06T09:37:55.593Z,48.92
2023-05-06T09:40:47.643Z,49.34
2023-05-06T09:43:42.119Z,49.69
2023-05-06T09:46:34.559Z,50.04
2023-05-06T09:49:27.331Z,50.36
2023-05-06T09:52:20.762Z,51.00
2023-05-06T09:55:13.698Z,51.43
2023-05-06T09:58:06.321Z,52.13
2023-05-06T10:00:58.789Z,53.54
2023-05-06T10:03:54.298Z,54.24
2023-05-06T10:06:49.719Z,55.10
2023-05-06T10:09:41.006Z,56.17
2023-05-06T10:12:33.669Z,56.66
2023-05-06T10:15:27.056Z,57.35
2023-05-06T10:18:21.181Z,57.41
2023-05-06T10:21:27.385Z,57.76
2023-05-06T10:24:24.566Z,57.98
2023-05-06T10:27:24.483Z,58.67
2023-05-06T10:30:17.762Z,59.23
2023-05-06T10:33:11.822Z,59.31
2023-05-06T10:36:12.965Z,59.91
2023-05-06T10:39:07.293Z,60.00
2023-05-06T10:41:59.688Z,60.15
2023-05-06T10:45:00.768Z,60.08
2023-05-06T10:48:12.632Z,60.61
2023-05-06T10:50:47.268Z,60.93
2023-05-06T10:54:00.030Z,61.33
2023-05-06T10:57:10.174Z,61.68
2023-05-06T11:00:02.255Z,62.29
2023-05-06T11:02:47.491Z,62.11
2023-05-06T11:05:51.568Z,62.34
2023-05-06T11:08:46.422Z,62.85
2023-05-06T11:12:00.414Z,63.06
2023-05-06T11:14:52.478Z,63.38
2023-05-06T11:17:44.550Z,63.61
2023-05-06T11:20:37.090Z,63.68
2023-05-06T11:23:19.001Z,64.14
2023-05-06T11:26:12.337Z,64.29
2023-05-06T11:29:05.479Z,63.96
2023-05-06T11:31:57.542Z,64.34
2023-05-06T11:34:49.586Z,64.79
2023-05-06T11:37:29.674Z,64.68
2023-05-06T11:40:22.221Z,64.92
2023-05-06T11:43:15.731Z,64.96
2023-05-06T11:45:51.135Z,65.14
2023-05-06T11:48:26.037Z,64.90
2023-05-06T11:51:22.532Z,65.05
2023-05-06T11:54:16.399Z,65.71
2023-05-06T11:57:08.488Z,65.78
2023-05-06T12:00:00.389Z,66.04
2023-05-06T12:02:57.818Z,66.24
2023-05-06T12:05:50.800Z,66.51
2023-05-06T12:08:28.615Z,66.70
2023-05-06T12:11:21.115Z,66.88
2023-05-06T12:14:06.092Z,66.79
2023-05-06T12:16:58.187Z,67.12
2023-05-06T12:19:32.479Z,67.08
2023-05-06T12:22:25.588Z,67.27
2023-05-06T12:25:18.901Z,67.31
2023-05-06T12:28:22.204Z,67.54
2023-05-06T12:31:20.630Z,67.83
2023-05-06T12:34:12.696Z,67.89
2023-05-06T12:37:04.620Z,68.03
2023-05-06T12:39:59.161Z,68.05
2023-05-06T12:42:57.511Z,68.03
2023-05-06T12:46:05.714Z,68.45
2023-05-06T12:49:02.376Z,68.53
2023-05-06T12:55:03.235Z,68.22
2023-05-06T12:57:57.203Z,68.41
2023-05-06T13:00:50.106Z,68.83
2023-05-06T13:03:42.159Z,69.00
2023-05-06T13:06:34.359Z,68.93
2023-05-06T13:09:15.750Z,68.93
2023-05-06T13:12:08.753Z,69.15
2023-05-06T13:15:00.822Z,69.27
2023-05-06T13:17:53.132Z,69.12
2023-05-06T13:20:45.948Z,69.30
2023-05-06T13:23:40.091Z,69.47
2023-05-06T13:26:32.152Z,69.39
2023-05-06T13:29:24.549Z,69.68
2023-05-06T13:32:16.547Z,69.76
2023-05-06T13:34:51.518Z,69.74
2023-05-06T13:37:43.423Z,69.51
2023-05-06T13:40:35.444Z,69.61
2023-05-06T13:43:17.088Z,69.75
2023-05-06T13:46:10.503Z,69.81
2023-05-06T13:48:42.439Z,69.49
2023-05-06T13:51:14.543Z,69.23
2023-05-06T13:54:06.753Z,69.30
2023-05-06T13:56:47.872Z,68.94
2023-05-06T13:59:39.961Z,68.34
2023-05-06T14:02:32.393Z,68.45
2023-05-06T14:05:24.584Z,68.46
2023-05-06T14:08:16.703Z,68.61
2023-05-06T14:11:10.143Z,68.65
2023-05-06T14:14:02.437Z,68.41
2023-05-06T14:16:55.554Z,68.22
2023-05-06T14:19:47.571Z,67.98
2023-05-06T14:22:41.003Z,67.99
2023-05-06T14:25:33.016Z,67.94
2023-05-06T14:28:25.294Z,67.91
2023-05-06T14:31:10.407Z,67.96
2023-05-06T14:34:02.745Z,68.12
2023-05-06T14:36:55.012Z,68.29
2023-05-06T14:39:47.037Z,67.46
2023-05-06T14:42:39.244Z,67.27
2023-05-06T14:45:31.288Z,66.60
2023-05-06T14:48:25.309Z,66.79
2023-05-06T14:51:14.765Z,66.68
2023-05-06T14:54:07.150Z,67.16
2023-05-06T14:56:49.380Z,67.26
2023-05-06T14:59:41.496Z,66.91
2023-05-06T15:02:33.758Z,67.11
2023-05-06T15:05:26.157Z,66.72
2023-05-06T15:08:01.384Z,66.19
2023-05-06T15:10:44.700Z,66.42
2023-05-06T15:13:36.906Z,66.13
2023-05-06T15:16:11.406Z,66.13
2023-05-06T15:18:54.149Z,66.51
2023-05-06T15:21:31.347Z,66.58
2023-05-06T15:24:23.829Z,66.82
2023-05-06T15:27:15.907Z,66.20
2023-05-06T15:30:09.873Z,65.82
2023-05-06T15:33:02.882Z,65.75
2023-05-06T15:35:55.091Z,65.12
2023-05-06T15:38:57.123Z,64.84
2023-05-06T15:41:52.159Z,64.60
2023-05-06T15:44:27.367Z,64.16
2023-05-06T15:47:19.422Z,64.63
2023-05-06T15:50:24.716Z,64.97
2023-05-06T15:53:24.618Z,65.11
2023-05-06T15:56:18.832Z,64.94
2023-05-06T15:59:12.255Z,65.00
2023-05-06T16:04:41.111Z,65.41
2023-05-06T16:07:33.464Z,65.56
2023-05-06T16:10:25.829Z,65.53
2023-05-06T16:13:17.838Z,65.51
2023-05-06T16:15:55.230Z,65.62
2023-05-06T16:18:47.232Z,65.57
2023-05-06T16:21:21.906Z,65.95
2023-05-06T16:24:14.021Z,66.33
2023-05-06T16:27:06.401Z,66.37
2023-05-06T16:29:38.553Z,66.10
2023-05-06T16:32:30.674Z,65.96
2023-05-06T16:35:13.268Z,66.19
2023-05-06T16:37:55.114Z,66.29
2023-05-06T16:40:43.378Z,66.16
2023-05-06T16:43:35.526Z,66.43
2023-05-06T16:46:16.518Z,66.48
2023-05-06T16:48:57.607Z,66.47
2023-05-06T16:51:49.893Z,66.52
2023-05-06T16:54:41.918Z,66.49
2023-05-06T16:57:33.893Z,66.76
2023-05-06T17:00:16.480Z,66.93
2023-05-06T17:02:51.225Z,66.54
2023-05-06T17:05:43.289Z,66.50
2023-05-06T17:08:36.885Z,66.72
2023-05-06T17:11:29.434Z,66.68
2023-05-06T17:14:21.986Z,66.78
2023-05-06T17:17:05.263Z,66.75
2023-05-06T17:19:58.239Z,66.76
2023-05-06T17:22:50.387Z,67.06
2023-05-06T17:25:42.373Z,67.13
2023-05-06T17:28:34.356Z,67.21
2023-05-06T17:31:11.914Z,67.13
2023-05-06T17:33:53.088Z,67.12
2023-05-06T17:36:45.065Z,66.96
2023-05-06T17:39:38.284Z,66.76
2023-05-06T17:42:19.419Z,66.84
2023-05-06T17:45:13.094Z,67.03
2023-05-06T17:47:53.803Z,67.08
2023-05-06T17:50:45.870Z,67.38
2023-05-06T17:53:29.688Z,67.37
2023-05-06T17:56:04.672Z,67.47
2023-05-06T17:58:36.639Z,67.51
2023-05-06T18:01:28.770Z,67.70
2023-05-06T18:04:03.860Z,67.84
2023-05-06T18:06:57.086Z,67.88
2023-05-06T18:09:51.959Z,68.15
2023-05-06T18:12:45.419Z,68.23
2023-05-06T18:15:38.037Z,68.41
2023-05-06T18:18:30.298Z,68.60
2023-05-06T18:21:22.394Z,68.79
2023-05-06T18:24:10.177Z,68.89
2023-05-06T18:27:06.252Z,69.10
2023-05-06T18:29:59.183Z,69.48
2023-05-06T18:32:49.319Z,69.44
2023-05-06T18:35:33.073Z,69.56
2023-05-06T18:38:26.531Z,69.55
2023-05-06T18:41:18.480Z,69.56
2023-05-06T18:44:10.435Z,69.57
2023-05-06T18:47:02.691Z,69.43
2023-05-06T18:49:54.759Z,69.47
2023-05-06T18:52:46.835Z,69.43
2023-05-06T18:55:38.948Z,69.44
2023-05-06T18:58:30.961Z,69.52
2023-05-06T19:01:11.300Z,69.60
2023-05-06T19:04:03.364Z,69.62
2023-05-06T19:06:55.489Z,69.45
2023-05-06T19:09:37.215Z,69.24
2023-05-06T19:12:30.566Z,69.05
2023-05-06T19:15:05.905Z,68.83
2023-05-06T19:17:58.055Z,68.83
2023-05-06T19:20:50.313Z,68.91
2023-05-06T19:23:27.549Z,68.92
2023-05-06T19:26:02.759Z,69.07
2023-05-06T19:28:55.873Z,69.12
2023-05-06T19:31:47.982Z,69.16
2023-05-06T19:34:40.230Z,69.14
2023-05-06T19:37:14.972Z,69.06
2023-05-06T19:40:09.078Z,69.15
2023-05-06T19:43:03.816Z,69.19
2023-05-06T19:45:39.025Z,69.29
2023-05-06T19:48:31.063Z,69.43
2023-05-06T19:51:23.190Z,69.57
2023-05-06T19:54:15.366Z,69.63
2023-05-06T19:57:07.506Z,69.71
2023-05-06T19:59:48.895Z,69.66
2023-05-06T20:02:41.121Z,69.83
2023-05-06T20:05:33.388Z,69.79
2023-05-06T20:08:26.086Z,69.78
2023-05-06T20:11:18.167Z,69.83
2023-05-06T20:14:10.290Z,69.78
2023-05-06T20:17:02.911Z,69.77
2023-05-06T20:19:57.265Z,69.80
2023-05-06T20:22:49.402Z,69.80
2023-05-06T20:25:27.542Z,69.82
2023-05-06T20:28:03.590Z,69.84
2023-05-06T20:30:59.783Z,69.74
2023-05-06T20:33:37.269Z,69.85
2023-05-06T20:36:29.814Z,69.68
2023-05-06T20:39:22.013Z,69.85
2023-05-06T20:42:13.998Z,69.78
2023-05-06T20:44:57.406Z,69.76
2023-05-06T20:47:34.898Z,69.73
2023-05-06T20:50:28.658Z,69.83
2023-05-06T20:53:20.752Z,69.72
2023-05-06T20:55:55.893Z,69.52
2023-05-06T20:58:47.928Z,69.67
2023-05-06T21:01:40.160Z,69.62
2023-05-06T21:04:32.794Z,69.68
2023-05-06T21:07:24.834Z,69.87
2023-05-06T21:10:16.903Z,69.75
2023-05-06T21:13:09.131Z,69.83
2023-05-06T21:16:01.228Z,69.87
2023-05-06T21:18:53.255Z,70.06
2023-05-06T21:21:45.428Z,70.06
2023-05-06T21:24:37.617Z,70.15
2023-05-06T21:27:29.723Z,70.02
2023-05-06T21:30:22.534Z,70.02
2023-05-06T21:33:08.302Z,70.06
2023-05-06T21:36:00.549Z,70.21
2023-05-06T21:39:08.927Z,70.22
2023-05-06T21:42:01.048Z,70.25
2023-05-06T21:44:53.041Z,70.46
2023-05-06T21:47:25.421Z,70.46
2023-05-06T21:50:17.700Z,70.14
2023-05-06T21:53:10.075Z,70.06
2023-05-06T21:56:02.100Z,69.72
2023-05-06T21:58:55.715Z,69.68
2023-05-06T22:01:48.208Z,69.72
2023-05-06T22:04:40.326Z,69.60
2023-05-06T22:07:32.390Z,69.49
2023-05-06T22:10:24.672Z,69.15
2023-05-06T22:13:06.019Z,69.12
2023-05-06T22:15:58.178Z,69.14
2023-05-06T22:18:51.826Z,69.19
2023-05-06T22:21:43.955Z,69.20
2023-05-06T22:24:36.141Z,69.28
2023-05-06T22:27:28.241Z,69.30
2023-05-06T22:30:20.471Z,69.14
2023-05-06T22:33:12.480Z,69.15
2023-05-06T22:36:04.658Z,69.16
2023-05-06T22:38:39.149Z,69.12
2023-05-06T22:41:32.047Z,69.09
2023-05-06T22:44:24.059Z,69.08
2023-05-06T22:47:16.479Z,68.99
2023-05-06T22:50:10.548Z,68.92
2023-05-06T22:53:10.216Z,69.01
2023-05-06T22:56:06.366Z,68.88
2023-05-06T22:58:58.305Z,68.88
2023-05-06T23:01:50.304Z,69.01
2023-05-06T23:04:42.309Z,68.98
2023-05-06T23:07:34.468Z,68.99
2023-05-06T23:10:16.662Z,69.13
2023-05-06T23:13:08.711Z,69.19
2023-05-06T23:16:00.795Z,69.30
2023-05-06T23:18:48.988Z,69.26
2023-05-06T23:21:41.484Z,69.27
2023-05-06T23:24:33.487Z,69.25
2023-05-06T23:27:25.668Z,69.11
2023-05-06T23:30:17.927Z,69.08
2023-05-06T23:33:09.953Z,68.96
2023-05-06T23:36:03.397Z,69.03
2023-05-06T23:38:55.335Z,69.02
2023-05-06T23:41:47.331Z,69.09
2023-05-06T23:44:39.440Z,68.98
2023-05-06T23:47:31.453Z,69.02
2023-05-06T23:50:23.432Z,69.15
2023-05-06T23:53:16.331Z,69.03
2023-05-06T23:56:09.522Z,69.08
2023-05-06T23:59:01.568Z,69.01
